Time;durP1;ratioP1;P1;durP2;ratioP2;P2;SDS_P1;SDS_P2;PMS_P1;PMS_P2;Temp;Humidity;BMP_temperature;BMP_pressure;BME280_temperature;BME280_humidity;BME280_pressure;Samples;Min_cycle;Max_cycle;Signal;HPM_P1;HPM_P2
2023/09/29 00:01:46;;;;;;;4.67;4.27;;;12.20;99.90;;;;;;5061366;28;20452;-79
2023/09/29 00:04:13;;;;;;;5.50;4.10;;;12.20;99.90;;;;;;5057604;28;20522;-83
2023/09/29 00:06:40;;;;;;;5.10;4.00;;;12.10;99.90;;;;;;5062100;28;20467;-79
2023/09/29 00:09:07;;;;;;;4.67;4.23;;;12.10;99.90;;;;;;5057164;28;20453;-84
2023/09/29 00:11:36;;;;;;;5.93;4.43;;;12.10;99.90;;;;;;5062036;28;20477;-81
2023/09/29 00:14:03;;;;;;;8.23;5.73;;;12.10;99.90;;;;;;5066917;28;20455;-80
2023/09/29 00:16:30;;;;;;;12.43;5.50;;;12.00;99.90;;;;;;5063377;28;20535;-79
2023/09/29 00:18:57;;;;;;;5.30;4.70;;;12.00;99.90;;;;;;5065614;28;20444;-82
2023/09/29 00:21:25;;;;;;;3.80;3.47;;;11.90;99.90;;;;;;5064561;28;20456;-82
2023/09/29 00:23:52;;;;;;;4.80;4.00;;;12.00;99.90;;;;;;5069313;28;20494;-79
2023/09/29 00:26:20;;;;;;;6.57;4.63;;;11.90;99.90;;;;;;5063964;28;20475;-80
2023/09/29 00:28:48;;;;;;;4.80;4.37;;;11.90;99.90;;;;;;5062733;28;20458;-79
2023/09/29 00:31:16;;;;;;;5.80;4.83;;;12.00;99.90;;;;;;5061480;28;20455;-79
2023/09/29 00:33:43;;;;;;;4.83;3.70;;;12.00;99.90;;;;;;5067420;28;20475;-79
2023/09/29 00:36:11;;;;;;;6.27;5.53;;;12.10;99.90;;;;;;5058934;28;20546;-79
2023/09/29 00:38:38;;;;;;;6.53;5.63;;;12.00;99.90;;;;;;5064927;28;20516;-79
2023/09/29 00:41:05;;;;;;;8.10;4.83;;;12.00;99.90;;;;;;5064851;28;20460;-82
2023/09/29 00:43:35;;;;;;;4.50;4.17;;;12.00;99.90;;;;;;5064332;28;20483;-79
2023/09/29 00:46:08;;;;;;;4.93;4.47;;;12.00;99.90;;;;;;5066386;28;21205;-80
2023/09/29 00:48:35;;;;;;;6.03;4.53;;;12.00;99.90;;;;;;5064346;28;20538;-82
2023/09/29 00:51:02;;;;;;;4.70;4.37;;;12.00;99.90;;;;;;5065807;28;20544;-79
2023/09/29 00:53:30;;;;;;;6.50;5.50;;;12.00;99.90;;;;;;5066878;28;20513;-80
2023/09/29 00:55:57;;;;;;;6.60;6.00;;;12.00;99.90;;;;;;5062271;28;20471;-79
2023/09/29 00:58:25;;;;;;;9.60;5.87;;;12.00;99.90;;;;;;5062186;28;20453;-81
2023/09/29 01:00:52;;;;;;;9.30;6.43;;;11.90;99.90;;;;;;5059374;28;20880;-79
2023/09/29 01:03:20;;;;;;;6.73;6.13;;;12.00;99.90;;;;;;5055550;28;20479;-79
2023/09/29 01:05:52;;;;;;;12.33;5.97;;;12.00;99.90;;;;;;5058449;28;20461;-79
2023/09/29 01:08:21;;;;;;;7.47;6.17;;;11.90;99.90;;;;;;5062641;28;20539;-79
2023/09/29 01:10:49;;;;;;;12.20;7.97;;;11.90;99.90;;;;;;5059782;28;20535;-79
2023/09/29 01:13:17;;;;;;;10.20;6.50;;;12.00;99.90;;;;;;5066654;28;20852;-80
2023/09/29 01:15:44;;;;;;;7.60;6.80;;;12.00;99.90;;;;;;5054112;28;20451;-80
2023/09/29 01:18:11;;;;;;;6.50;5.90;;;12.10;99.90;;;;;;5065145;28;20467;-78
2023/09/29 01:20:40;;;;;;;6.77;6.00;;;12.00;99.90;;;;;;5056793;28;21255;-80
2023/09/29 01:23:07;;;;;;;6.77;5.53;;;11.80;99.90;;;;;;5063673;28;22766;-81
2023/09/29 01:25:36;;;;;;;8.90;6.73;;;11.70;99.90;;;;;;5067652;28;20508;-79
2023/09/29 01:28:05;;;;;;;5.13;4.40;;;11.70;99.90;;;;;;5063342;28;20466;-78
2023/09/29 01:30:32;;;;;;;6.80;5.53;;;11.80;99.90;;;;;;5062527;28;20915;-78
2023/09/29 01:33:00;;;;;;;3.93;3.63;;;11.70;99.90;;;;;;5063135;28;20543;-79
2023/09/29 01:35:27;;;;;;;3.97;3.67;;;11.60;99.90;;;;;;5061710;28;21007;-79
2023/09/29 01:37:56;;;;;;;5.00;3.97;;;11.60;99.90;;;;;;5061333;28;20449;-78
2023/09/29 01:40:26;;;;;;;3.63;3.33;;;11.50;99.90;;;;;;5063213;28;20448;-78
2023/09/29 01:42:56;;;;;;;4.70;4.27;;;11.50;99.90;;;;;;5063591;28;20544;-78
2023/09/29 01:45:23;;;;;;;9.83;5.90;;;11.40;99.90;;;;;;5055474;28;20454;-78
2023/09/29 01:47:50;;;;;;;6.20;5.17;;;11.30;99.90;;;;;;5066132;28;20447;-79
2023/09/29 01:50:19;;;;;;;7.10;6.40;;;11.20;99.90;;;;;;5063161;28;21000;-79
2023/09/29 01:52:47;;;;;;;8.87;6.97;;;11.20;99.90;;;;;;5065892;28;20460;-79
2023/09/29 01:55:19;;;;;;;5.77;5.20;;;11.20;99.90;;;;;;5056287;28;20863;-79
2023/09/29 01:57:47;;;;;;;6.40;5.90;;;11.10;99.90;;;;;;5065825;28;20474;-78
2023/09/29 02:00:19;;;;;;;7.83;5.77;;;11.10;99.90;;;;;;5053222;28;20448;-81
2023/09/29 02:02:46;;;;;;;5.80;5.30;;;11.10;99.90;;;;;;5061254;28;20496;-80
2023/09/29 02:05:16;;;;;;;7.40;4.73;;;11.00;99.90;;;;;;5055617;28;20484;-76
2023/09/29 02:07:43;;;;;;;5.73;5.10;;;11.00;99.90;;;;;;5064854;28;20442;-79
2023/09/29 02:10:11;;;;;;;5.53;4.53;;;11.00;99.90;;;;;;5054611;28;20635;-78
2023/09/29 02:12:46;;;;;;;5.83;5.33;;;11.00;99.90;;;;;;5065949;28;21193;-78
2023/09/29 02:15:15;;;;;;;6.20;5.70;;;11.00;99.90;;;;;;5067689;28;20466;-78
2023/09/29 02:17:43;;;;;;;4.47;3.77;;;10.90;99.90;;;;;;5053819;28;20451;-78
2023/09/29 02:20:14;;;;;;;4.73;4.33;;;10.90;99.90;;;;;;5060432;28;20451;-80
2023/09/29 02:22:41;;;;;;;5.50;4.30;;;10.90;99.90;;;;;;5059943;28;20440;-78
2023/09/29 02:25:10;;;;;;;5.60;4.87;;;10.90;99.90;;;;;;5066354;28;20489;-81
2023/09/29 02:27:37;;;;;;;4.87;4.37;;;10.80;99.90;;;;;;5060067;28;20461;-81
2023/09/29 02:30:08;;;;;;;5.90;4.60;;;10.80;99.90;;;;;;5062282;28;20452;-80
2023/09/29 02:32:37;;;;;;;4.43;4.03;;;10.80;99.90;;;;;;5063379;28;20443;-81
2023/09/29 02:35:04;;;;;;;8.40;5.90;;;10.70;99.90;;;;;;5066419;28;20507;-81
2023/09/29 02:37:31;;;;;;;5.27;4.77;;;10.70;99.90;;;;;;5064411;28;20481;-83
2023/09/29 02:39:58;;;;;;;7.87;5.43;;;10.70;99.90;;;;;;5064629;28;20446;-78
2023/09/29 02:42:25;;;;;;;5.93;5.13;;;10.60;99.90;;;;;;5063537;28;20467;-78
2023/09/29 02:44:52;;;;;;;6.93;5.57;;;10.60;99.90;;;;;;5051590;28;20561;-78
2023/09/29 02:47:19;;;;;;;6.10;5.50;;;10.60;99.90;;;;;;5055729;28;20454;-79
2023/09/29 02:49:48;;;;;;;6.30;5.20;;;10.70;99.90;;;;;;5056936;28;20456;-79
2023/09/29 02:52:15;;;;;;;10.23;7.33;;;10.80;99.90;;;;;;5056760;28;21004;-77
2023/09/29 02:54:42;;;;;;;6.03;5.13;;;10.80;99.90;;;;;;5063809;28;20449;-78
2023/09/29 02:57:09;;;;;;;7.13;6.20;;;10.80;99.90;;;;;;5064657;28;20506;-76
2023/09/29 02:59:37;;;;;;;7.40;6.67;;;10.80;99.90;;;;;;5064562;28;20448;-76
2023/09/29 03:02:05;;;;;;;6.70;5.80;;;10.90;99.90;;;;;;5064508;28;20890;-79
2023/09/29 03:04:32;;;;;;;6.17;5.57;;;10.90;99.90;;;;;;5061381;28;20539;-78
2023/09/29 03:07:00;;;;;;;6.80;6.20;;;10.90;99.90;;;;;;5059872;28;20520;-77
2023/09/29 03:09:29;;;;;;;7.70;5.63;;;10.90;99.90;;;;;;5062134;28;20503;-82
2023/09/29 03:11:58;;;;;;;6.20;5.60;;;11.00;99.90;;;;;;5059189;28;20477;-81
2023/09/29 03:14:26;;;;;;;7.00;4.83;;;11.00;99.90;;;;;;5055599;28;20466;-78
2023/09/29 03:16:54;;;;;;;6.10;5.53;;;11.10;99.90;;;;;;5052629;28;20499;-79
2023/09/29 03:19:21;;;;;;;5.87;5.27;;;11.10;99.90;;;;;;5063170;28;20561;-80
2023/09/29 03:21:48;;;;;;;5.20;4.70;;;10.90;99.90;;;;;;5061515;28;20438;-77
2023/09/29 03:24:17;;;;;;;6.83;5.43;;;10.80;99.90;;;;;;5064931;28;20610;-75
2023/09/29 03:26:45;;;;;;;7.10;5.37;;;10.80;99.90;;;;;;5062529;28;21341;-77
2023/09/29 03:29:12;;;;;;;6.13;5.07;;;10.70;99.90;;;;;;5055010;28;21028;-79
2023/09/29 03:31:39;;;;;;;6.63;5.17;;;10.70;99.90;;;;;;5054670;28;21379;-77
2023/09/29 03:34:06;;;;;;;5.17;4.67;;;10.70;99.90;;;;;;5061760;28;20559;-80
2023/09/29 03:36:34;;;;;;;6.40;5.80;;;10.60;99.90;;;;;;5063196;28;20481;-80
2023/09/29 03:39:05;;;;;;;7.57;6.70;;;10.50;99.90;;;;;;5056794;28;20454;-78
2023/09/29 03:41:33;;;;;;;5.97;5.03;;;10.70;99.90;;;;;;5057006;28;20540;-78
2023/09/29 03:44:00;;;;;;;9.53;5.43;;;10.60;99.90;;;;;;5057766;28;21083;-77
2023/09/29 03:46:29;;;;;;;8.10;6.60;;;10.60;99.90;;;;;;5067069;28;20517;-78
2023/09/29 03:48:56;;;;;;;7.53;4.93;;;10.60;99.90;;;;;;5058805;28;20461;-77
2023/09/29 03:51:24;;;;;;;7.50;5.63;;;10.70;99.90;;;;;;5062459;28;20477;-79
2023/09/29 03:53:51;;;;;;;13.37;8.03;;;10.70;99.90;;;;;;5068350;28;20471;-75
2023/09/29 03:56:18;;;;;;;5.97;5.47;;;10.70;99.90;;;;;;5064777;28;20523;-76
2023/09/29 03:58:46;;;;;;;8.67;5.47;;;10.70;99.90;;;;;;5065277;28;20464;-75
2023/09/29 04:01:15;;;;;;;6.33;5.67;;;10.60;99.90;;;;;;5069287;28;21055;-76
2023/09/29 04:03:42;;;;;;;7.60;6.10;;;10.60;99.90;;;;;;5060942;28;20462;-80
2023/09/29 04:06:09;;;;;;;6.07;4.83;;;10.60;99.90;;;;;;5063406;28;20808;-76
2023/09/29 04:08:36;;;;;;;5.97;5.37;;;10.60;99.90;;;;;;5065330;28;20445;-77
2023/09/29 04:11:03;;;;;;;6.17;5.57;;;10.60;99.90;;;;;;5061556;28;20464;-82
2023/09/29 04:13:30;;;;;;;6.03;4.77;;;10.50;99.90;;;;;;5064856;28;20475;-77
2023/09/29 04:16:04;;;;;;;4.87;4.47;;;10.50;99.90;;;;;;5066495;28;20519;-76
2023/09/29 04:18:31;;;;;;;5.80;5.27;;;10.40;99.90;;;;;;5065488;28;20950;-76
2023/09/29 04:21:00;;;;;;;6.40;4.67;;;10.30;99.90;;;;;;5064522;28;21145;-77
2023/09/29 04:23:27;;;;;;;6.63;4.83;;;10.30;99.90;;;;;;5066181;28;20499;-77
2023/09/29 04:25:54;;;;;;;8.40;5.73;;;10.20;99.90;;;;;;5063190;28;20492;-76
2023/09/29 04:28:21;;;;;;;6.43;4.30;;;10.20;99.90;;;;;;5067778;28;20449;-79
2023/09/29 04:30:48;;;;;;;5.03;4.53;;;10.20;99.90;;;;;;5068786;28;20472;-77
2023/09/29 04:33:16;;;;;;;7.10;6.40;;;10.20;99.90;;;;;;5068132;28;20473;-80
2023/09/29 04:35:43;;;;;;;5.13;4.63;;;10.20;99.90;;;;;;5066830;28;20448;-78
2023/09/29 04:38:10;;;;;;;5.77;5.17;;;10.20;99.90;;;;;;5059069;28;20963;-82
2023/09/29 04:40:38;;;;;;;9.07;5.27;;;10.20;99.90;;;;;;5066642;28;20449;-76
2023/09/29 04:43:05;;;;;;;4.33;3.93;;;10.20;99.90;;;;;;5063730;28;20496;-76
2023/09/29 04:45:33;;;;;;;5.10;4.60;;;10.10;99.90;;;;;;5061256;28;20480;-78
2023/09/29 04:48:01;;;;;;;9.00;4.77;;;10.20;99.90;;;;;;5062117;28;20531;-76
2023/09/29 04:50:29;;;;;;;4.97;4.47;;;10.20;99.90;;;;;;5057428;28;20943;-81
2023/09/29 04:52:56;;;;;;;3.77;3.43;;;10.20;99.90;;;;;;5059908;28;20518;-80
2023/09/29 04:55:23;;;;;;;4.97;4.30;;;10.20;99.90;;;;;;5066865;28;20533;-76
2023/09/29 04:57:52;;;;;;;10.63;5.50;;;10.20;99.90;;;;;;5055932;28;20436;-76
2023/09/29 05:00:19;;;;;;;6.80;5.60;;;10.30;99.90;;;;;;5049626;28;20586;-77
2023/09/29 05:02:46;;;;;;;7.63;5.80;;;10.40;99.90;;;;;;5062242;28;20915;-76
2023/09/29 05:05:13;;;;;;;6.90;6.07;;;10.50;99.90;;;;;;5066213;28;20492;-76
2023/09/29 05:07:44;;;;;;;6.30;5.43;;;10.50;99.90;;;;;;5066630;28;20508;-77
2023/09/29 05:10:13;;;;;;;4.97;4.53;;;10.60;99.90;;;;;;5062697;28;20452;-76
2023/09/29 05:12:41;;;;;;;7.00;5.80;;;10.50;99.90;;;;;;5068996;28;20541;-76
2023/09/29 05:15:09;;;;;;;6.67;5.20;;;10.50;99.90;;;;;;5067510;28;20464;-75
2023/09/29 05:17:36;;;;;;;6.03;5.43;;;10.50;99.90;;;;;;5068168;28;20432;-76
2023/09/29 05:20:05;;;;;;;6.20;5.67;;;10.50;99.90;;;;;;5068023;28;20946;-76
2023/09/29 05:22:32;;;;;;;5.63;4.83;;;10.50;99.90;;;;;;5064415;28;20456;-75
2023/09/29 05:25:00;;;;;;;7.03;5.20;;;10.50;99.90;;;;;;5062633;28;20562;-75
2023/09/29 05:27:29;;;;;;;10.00;5.93;;;10.50;99.90;;;;;;5059782;28;21041;-79
2023/09/29 05:29:56;;;;;;;8.37;7.47;;;10.50;99.90;;;;;;5065891;28;20528;-77
2023/09/29 05:32:24;;;;;;;6.20;5.60;;;10.50;99.90;;;;;;5062702;28;20540;-81
2023/09/29 05:34:51;;;;;;;7.57;5.23;;;10.50;99.90;;;;;;5065167;28;20573;-77
2023/09/29 05:37:18;;;;;;;6.00;4.73;;;10.60;99.90;;;;;;5065321;28;20460;-80
2023/09/29 05:39:45;;;;;;;9.37;6.33;;;10.70;99.90;;;;;;5057612;28;20445;-80
2023/09/29 05:42:13;;;;;;;8.73;6.50;;;10.70;99.90;;;;;;5061691;28;20611;-79
2023/09/29 05:44:40;;;;;;;6.20;4.53;;;10.80;99.90;;;;;;5051273;28;20988;-78
2023/09/29 05:47:07;;;;;;;9.80;6.73;;;10.80;99.90;;;;;;5061365;28;20534;-78
2023/09/29 05:49:34;;;;;;;7.70;6.93;;;10.80;99.90;;;;;;5060721;28;20512;-76
2023/09/29 05:52:01;;;;;;;6.40;4.80;;;10.90;99.90;;;;;;5060410;28;20476;-76
2023/09/29 05:54:28;;;;;;;5.47;4.50;;;11.00;99.90;;;;;;5053150;28;20441;-78
2023/09/29 05:56:55;;;;;;;5.70;4.40;;;11.00;99.90;;;;;;5064912;28;20456;-75
2023/09/29 05:59:23;;;;;;;6.70;5.10;;;11.10;99.90;;;;;;5055025;28;20448;-76
2023/09/29 06:01:51;;;;;;;5.37;4.47;;;11.20;99.90;;;;;;5054492;28;20499;-76
2023/09/29 06:04:17;;;;;;;6.13;5.53;;;11.20;99.90;;;;;;5060522;28;21452;-76
2023/09/29 06:06:44;;;;;;;4.60;4.20;;;11.20;99.90;;;;;;5057030;28;20450;-75
2023/09/29 06:09:11;;;;;;;4.47;4.07;;;11.20;99.90;;;;;;5062532;28;20441;-81
2023/09/29 06:11:39;;;;;;;6.77;4.90;;;11.30;99.90;;;;;;5067124;28;20444;-76
2023/09/29 06:14:06;;;;;;;5.60;4.50;;;11.50;99.90;;;;;;5052259;28;20505;-77
2023/09/29 06:16:36;;;;;;;5.73;5.30;;;11.50;99.90;;;;;;5065627;28;21023;-78
2023/09/29 06:19:03;;;;;;;5.80;5.20;;;11.60;99.90;;;;;;5056662;28;20970;-77
2023/09/29 06:21:30;;;;;;;9.40;5.47;;;11.70;99.90;;;;;;5059093;28;20965;-77
2023/09/29 06:23:57;;;;;;;5.83;5.23;;;11.70;99.90;;;;;;5065861;28;20504;-76
2023/09/29 06:26:23;;;;;;;6.40;4.73;;;11.90;99.90;;;;;;5054425;28;20572;-77
2023/09/29 06:28:51;;;;;;;5.10;4.63;;;12.10;99.90;;;;;;5051970;28;20450;-77
2023/09/29 06:31:18;;;;;;;11.00;6.57;;;12.30;99.90;;;;;;5061982;28;20481;-81
2023/09/29 06:33:46;;;;;;;6.20;5.70;;;12.40;99.90;;;;;;5062401;28;20949;-76
2023/09/29 06:36:14;;;;;;;7.17;6.57;;;12.60;99.90;;;;;;5050599;28;20826;-77
2023/09/29 06:38:40;;;;;;;7.60;6.47;;;12.60;99.90;;;;;;5054768;28;20456;-78
2023/09/29 06:41:07;;;;;;;8.07;5.70;;;12.70;99.90;;;;;;5051644;28;20456;-77
2023/09/29 06:43:35;;;;;;;7.37;5.20;;;12.60;99.90;;;;;;5064026;28;20884;-79
2023/09/29 06:46:02;;;;;;;6.70;6.03;;;12.70;99.90;;;;;;5055191;28;20489;-76
2023/09/29 06:48:29;;;;;;;6.03;5.53;;;12.70;99.90;;;;;;5065653;28;20450;-76
2023/09/29 06:50:59;;;;;;;9.90;6.53;;;12.90;99.90;;;;;;5053321;28;20544;-79
2023/09/29 06:53:26;;;;;;;13.13;7.73;;;13.10;99.90;;;;;;5055675;28;21012;-75
2023/09/29 06:55:54;;;;;;;6.20;5.60;;;13.20;99.90;;;;;;5061967;28;20478;-76
2023/09/29 06:58:21;;;;;;;11.10;6.23;;;13.20;99.90;;;;;;5054591;28;20459;-79
2023/09/29 07:00:51;;;;;;;10.60;6.87;;;13.30;99.90;;;;;;5057979;28;20923;-77
2023/09/29 07:03:18;;;;;;;9.30;5.77;;;13.40;99.90;;;;;;5060730;28;20556;-76
2023/09/29 07:05:46;;;;;;;7.83;5.87;;;13.60;99.90;;;;;;5063186;28;21040;-76
2023/09/29 07:08:15;;;;;;;7.20;5.50;;;13.60;99.90;;;;;;5063868;28;20471;-77
2023/09/29 07:10:43;;;;;;;5.00;4.47;;;13.60;99.90;;;;;;5062251;28;20453;-76
2023/09/29 07:13:10;;;;;;;8.17;5.40;;;13.80;99.90;;;;;;5058005;28;20466;-78
2023/09/29 07:15:37;;;;;;;7.20;4.60;;;13.80;99.90;;;;;;5061795;28;20520;-76
2023/09/29 07:18:05;;;;;;;5.00;4.43;;;14.10;99.90;;;;;;5051193;28;20818;-77
2023/09/29 07:20:31;;;;;;;4.93;4.17;;;14.20;99.90;;;;;;5066444;28;20452;-74
2023/09/29 07:22:58;;;;;;;4.20;3.67;;;14.30;99.90;;;;;;5060135;28;20471;-77
2023/09/29 07:25:27;;;;;;;4.97;4.03;;;14.50;99.90;;;;;;5065767;28;20535;-76
2023/09/29 07:27:54;;;;;;;4.90;4.27;;;14.70;99.90;;;;;;5056490;28;20450;-76
2023/09/29 07:30:21;;;;;;;6.73;5.77;;;14.80;99.90;;;;;;5061393;28;20550;-75
2023/09/29 07:32:48;;;;;;;5.77;4.77;;;15.00;99.90;;;;;;5059803;28;20461;-79
2023/09/29 07:35:15;;;;;;;9.07;4.77;;;15.10;99.90;;;;;;5055595;28;20833;-78
2023/09/29 07:37:42;;;;;;;5.97;5.43;;;15.10;99.90;;;;;;5058409;28;20470;-77
2023/09/29 07:40:10;;;;;;;7.03;4.77;;;15.30;99.90;;;;;;5060404;28;20461;-76
2023/09/29 07:42:39;;;;;;;6.67;4.83;;;15.30;99.90;;;;;;5065229;28;20577;-79
2023/09/29 07:45:07;;;;;;;6.00;5.50;;;15.50;99.90;;;;;;5056822;28;21193;-76
2023/09/29 07:47:34;;;;;;;5.80;5.00;;;15.60;99.90;;;;;;5058970;28;20454;-79
2023/09/29 07:50:01;;;;;;;4.50;4.20;;;15.70;99.90;;;;;;5049080;28;20449;-76
2023/09/29 07:52:28;;;;;;;6.37;5.27;;;15.80;99.90;;;;;;5058944;28;20482;-75
2023/09/29 07:54:56;;;;;;;5.93;5.27;;;16.00;99.90;;;;;;5056900;28;20522;-76
2023/09/29 07:57:23;;;;;;;5.47;4.63;;;16.00;99.90;;;;;;5047074;28;20453;-76
2023/09/29 07:59:52;;;;;;;6.77;5.63;;;16.00;99.90;;;;;;5064004;28;20559;-80
2023/09/29 08:02:19;;;;;;;6.80;5.93;;;16.20;99.90;;;;;;5058795;28;20554;-76
2023/09/29 08:04:46;;;;;;;9.13;4.57;;;16.30;99.90;;;;;;5059900;28;20459;-80
2023/09/29 08:07:13;;;;;;;5.33;4.27;;;16.30;99.90;;;;;;5058919;28;20544;-76
2023/09/29 08:09:40;;;;;;;6.07;5.47;;;16.50;99.90;;;;;;5057790;28;20521;-77
2023/09/29 08:12:07;;;;;;;6.03;5.37;;;16.50;99.90;;;;;;5061974;28;21016;-76
2023/09/29 08:14:34;;;;;;;6.90;6.30;;;16.60;99.90;;;;;;5065641;28;20452;-78
2023/09/29 08:17:03;;;;;;;6.23;4.60;;;16.80;99.90;;;;;;5056574;28;20852;-76
2023/09/29 08:19:30;;;;;;;7.33;5.60;;;16.90;99.90;;;;;;5065475;28;21017;-76
2023/09/29 08:21:57;;;;;;;8.13;5.77;;;17.00;99.90;;;;;;5065274;28;21138;-77
2023/09/29 08:24:24;;;;;;;7.33;5.60;;;17.20;99.90;;;;;;5065964;28;20464;-79
2023/09/29 08:26:51;;;;;;;5.93;5.43;;;17.20;99.90;;;;;;5064886;28;20484;-77
2023/09/29 08:29:18;;;;;;;5.60;5.03;;;17.30;99.90;;;;;;5062532;28;20501;-77
2023/09/29 08:31:45;;;;;;;7.03;6.33;;;17.40;99.90;;;;;;5063972;28;20439;-77
2023/09/29 08:34:14;;;;;;;6.37;5.60;;;17.50;99.90;;;;;;5061146;28;20468;-77
2023/09/29 08:36:41;;;;;;;7.03;6.40;;;17.60;99.90;;;;;;5067512;28;20497;-78
2023/09/29 08:39:08;;;;;;;5.23;4.77;;;17.70;99.90;;;;;;5068925;28;20509;-77
2023/09/29 08:41:43;;;;;;;5.43;4.57;;;17.80;99.90;;;;;;5056018;28;20463;-78
2023/09/29 08:44:14;;;;;;;5.93;5.10;;;17.70;99.90;;;;;;5059740;28;20463;-77
2023/09/29 08:46:50;;;;;;;5.30;4.80;;;17.80;99.90;;;;;;5063577;28;20484;-78
2023/09/29 08:49:20;;;;;;;6.93;4.90;;;17.80;99.90;;;;;;5066804;28;20650;-80
2023/09/29 08:51:53;;;;;;;5.30;4.80;;;17.90;99.90;;;;;;5054366;28;20494;-79
2023/09/29 08:54:21;;;;;;;5.73;5.23;;;18.00;99.90;;;;;;5061706;28;20455;-79
2023/09/29 08:56:50;;;;;;;5.07;4.57;;;18.10;99.90;;;;;;5062593;28;20436;-80
2023/09/29 08:59:18;;;;;;;7.83;7.13;;;18.10;99.90;;;;;;5064451;28;20579;-79
2023/09/29 09:01:46;;;;;;;13.23;5.17;;;18.20;99.90;;;;;;5059109;28;20471;-79
2023/09/29 09:04:13;;;;;;;6.83;5.57;;;18.30;99.90;;;;;;5055278;28;20873;-78
2023/09/29 09:06:41;;;;;;;4.40;4.00;;;18.40;99.90;;;;;;5056738;28;20498;-78
2023/09/29 09:09:09;;;;;;;4.73;3.97;;;18.40;99.90;;;;;;5065746;28;20481;-79
2023/09/29 09:11:42;;;;;;;6.17;4.30;;;18.50;99.90;;;;;;5068982;28;20447;-79
2023/09/29 09:14:10;;;;;;;4.80;4.27;;;18.60;99.90;;;;;;5067574;28;20543;-83
2023/09/29 09:16:38;;;;;;;4.93;4.40;;;18.70;99.90;;;;;;5063187;28;20547;-85
2023/09/29 09:19:10;;;;;;;5.60;4.73;;;18.70;99.90;;;;;;5066857;28;20485;-79
2023/09/29 09:21:38;;;;;;;6.27;5.00;;;18.70;99.90;;;;;;5067598;28;20444;-80
2023/09/29 09:24:17;;;;;;;6.17;5.63;;;18.70;99.90;;;;;;5067637;28;20541;-80
2023/09/29 09:26:46;;;;;;;5.47;4.73;;;18.90;99.90;;;;;;5063708;28;20572;-80
2023/09/29 09:29:15;;;;;;;7.80;7.10;;;19.00;99.90;;;;;;5067577;28;21007;-82
2023/09/29 09:31:44;;;;;;;8.83;6.30;;;19.20;99.90;;;;;;5068307;28;20539;-80
2023/09/29 09:34:12;;;;;;;7.73;6.83;;;19.30;99.90;;;;;;5058449;28;20476;-78
2023/09/29 09:36:51;;;;;;;5.90;5.40;;;19.60;99.90;;;;;;5065717;28;20561;-80
2023/09/29 09:39:24;;;;;;;7.60;5.27;;;19.60;99.90;;;;;;5068425;28;20485;-79
2023/09/29 09:41:56;;;;;;;7.83;7.03;;;19.70;99.90;;;;;;5062608;28;20458;-78
2023/09/29 09:44:25;;;;;;;7.90;6.70;;;19.40;99.90;;;;;;5067074;28;20439;-79
2023/09/29 09:47:00;;;;;;;7.57;5.53;;;19.40;99.90;;;;;;5066811;28;20984;-79
2023/09/29 09:49:36;;;;;;;6.93;6.23;;;19.50;99.90;;;;;;5068177;28;20443;-82
2023/09/29 09:52:07;;;;;;;6.67;5.07;;;19.40;99.90;;;;;;5067606;28;20481;-81
2023/09/29 09:54:44;;;;;;;6.10;5.63;;;19.60;99.90;;;;;;5052778;28;21380;-79
2023/09/29 09:57:13;;;;;;;6.70;6.10;;;19.80;99.90;;;;;;5058115;28;20464;-82
2023/09/29 09:59:44;;;;;;;6.20;5.40;;;19.70;99.90;;;;;;5062703;28;21012;-81
2023/09/29 10:02:11;;;;;;;6.43;5.70;;;19.70;99.90;;;;;;5067252;28;20810;-77
2023/09/29 10:04:39;;;;;;;6.87;4.97;;;19.70;99.90;;;;;;5056736;28;20467;-79
2023/09/29 10:07:07;;;;;;;7.30;6.60;;;19.80;99.90;;;;;;5063525;28;20552;-78
2023/09/29 10:09:43;;;;;;;6.37;5.77;;;19.80;99.90;;;;;;5062565;28;20513;-79
2023/09/29 10:12:23;;;;;;;7.77;6.00;;;19.90;99.30;;;;;;5067678;28;20461;-79
2023/09/29 10:14:50;;;;;;;4.87;4.23;;;19.90;99.10;;;;;;5059670;28;20506;-81
2023/09/29 10:17:17;;;;;;;8.57;6.57;;;20.10;98.80;;;;;;5067070;28;20448;-79
2023/09/29 10:19:45;;;;;;;7.87;5.10;;;20.10;99.90;;;;;;5057085;28;20483;-79
2023/09/29 10:22:23;;;;;;;5.50;4.40;;;20.20;99.90;;;;;;5068021;28;20530;-78
2023/09/29 10:24:56;;;;;;;6.17;5.53;;;20.60;99.40;;;;;;5063083;28;20459;-82
2023/09/29 10:27:32;;;;;;;6.93;4.67;;;20.80;98.00;;;;;;5059032;28;20539;-79
2023/09/29 10:30:17;;;;;;;7.13;4.97;;;20.60;96.40;;;;;;5057416;28;20523;-79
2023/09/29 10:32:48;;;;;;;5.97;5.37;;;20.60;96.20;;;;;;5067270;28;20548;-79
2023/09/29 10:35:20;;;;;;;6.30;5.20;;;20.60;95.70;;;;;;5066621;28;20493;-78
2023/09/29 10:37:54;;;;;;;7.30;5.47;;;20.60;98.70;;;;;;5066368;28;20467;-83
2023/09/29 10:40:25;;;;;;;11.33;5.60;;;20.70;99.90;;;;;;5066874;28;20444;-79
2023/09/29 10:42:56;;;;;;;6.17;4.80;;;20.60;99.90;;;;;;5064307;28;20993;-80
2023/09/29 10:45:29;;;;;;;5.20;4.70;;;20.60;97.60;;;;;;5062097;28;20463;-79
2023/09/29 10:48:02;;;;;;;6.30;5.70;;;20.70;98.00;;;;;;5058680;28;20579;-83
2023/09/29 10:50:29;;;;;;;4.50;4.10;;;20.80;96.30;;;;;;5058358;28;20900;-80
2023/09/29 10:52:57;;;;;;;4.93;4.40;;;20.80;95.60;;;;;;5063487;28;20498;-81
2023/09/29 10:55:25;;;;;;;5.37;4.63;;;20.90;96.30;;;;;;5066142;28;20539;-78
2023/09/29 10:57:52;;;;;;;5.97;4.43;;;21.00;94.70;;;;;;5059874;28;20994;-79
2023/09/29 11:00:20;;;;;;;5.53;4.80;;;21.20;95.10;;;;;;5062972;28;20447;-78
2023/09/29 11:02:49;;;;;;;5.37;4.87;;;21.20;92.80;;;;;;5059101;28;20464;-79
2023/09/29 11:05:17;;;;;;;4.97;4.47;;;21.40;96.10;;;;;;5054710;28;20540;-80
2023/09/29 11:07:48;;;;;;;4.20;3.80;;;21.30;94.40;;;;;;5059652;28;20487;-78
2023/09/29 11:10:17;;;;;;;12.33;5.97;;;21.40;93.60;;;;;;5066132;28;20467;-80
2023/09/29 11:12:47;;;;;;;3.90;3.60;;;21.40;92.10;;;;;;5066037;28;21013;-82
2023/09/29 11:15:15;;;;;;;6.30;4.53;;;21.50;93.20;;;;;;5053976;28;20587;-79
2023/09/29 11:17:46;;;;;;;4.20;3.80;;;21.70;93.90;;;;;;5054255;28;20449;-79
2023/09/29 11:20:16;;;;;;;4.83;4.43;;;21.70;90.80;;;;;;5061193;28;20468;-79
2023/09/29 11:22:45;;;;;;;4.80;4.00;;;21.70;92.10;;;;;;5065165;28;20505;-84
2023/09/29 11:25:19;;;;;;;4.70;3.80;;;21.80;93.50;;;;;;5061409;28;20471;-79
2023/09/29 11:27:52;;;;;;;7.67;5.13;;;22.00;91.10;;;;;;5067052;28;20481;-79
2023/09/29 11:30:20;;;;;;;10.17;4.73;;;21.90;88.30;;;;;;5059457;28;20994;-79
2023/09/29 11:32:48;;;;;;;4.90;4.50;;;21.90;89.80;;;;;;5059746;28;20435;-79
2023/09/29 11:35:16;;;;;;;5.17;4.60;;;22.00;88.80;;;;;;5062814;28;20468;-83
2023/09/29 11:37:44;;;;;;;4.00;3.70;;;22.10;88.80;;;;;;5059858;28;21115;-79
2023/09/29 11:40:12;;;;;;;5.47;4.33;;;22.00;88.80;;;;;;5056244;28;20490;-79
2023/09/29 11:42:39;;;;;;;4.60;4.20;;;22.20;91.60;;;;;;5061796;28;20456;-79
2023/09/29 11:45:10;;;;;;;4.60;4.13;;;22.10;85.90;;;;;;5062726;28;20820;-79
2023/09/29 11:47:39;;;;;;;4.43;3.90;;;22.20;89.00;;;;;;5062447;28;20495;-78
2023/09/29 11:50:09;;;;;;;4.40;3.90;;;22.30;86.10;;;;;;5062568;28;20492;-79
2023/09/29 11:52:39;;;;;;;3.97;3.57;;;22.40;86.00;;;;;;5065528;28;20559;-79
2023/09/29 11:55:08;;;;;;;7.57;5.40;;;22.40;83.40;;;;;;5060249;28;20463;-79
2023/09/29 11:57:37;;;;;;;3.83;3.53;;;22.50;78.30;;;;;;5061502;28;21002;-82
2023/09/29 12:00:08;;;;;;;3.30;3.00;;;22.40;81.70;;;;;;5066511;28;20467;-79
2023/09/29 12:02:36;;;;;;;7.67;4.23;;;22.50;80.40;;;;;;5060709;28;20448;-79
2023/09/29 12:05:04;;;;;;;4.27;3.20;;;22.50;79.90;;;;;;5060347;28;20559;-80
2023/09/29 12:07:31;;;;;;;3.60;3.30;;;22.70;80.80;;;;;;5060570;28;20586;-78
2023/09/29 12:09:58;;;;;;;3.83;3.40;;;22.90;76.40;;;;;;5065897;28;20444;-79
2023/09/29 12:12:25;;;;;;;4.70;4.30;;;22.80;76.10;;;;;;5070404;28;20995;-79
2023/09/29 12:14:53;;;;;;;4.20;3.90;;;22.70;75.70;;;;;;5050286;28;20523;-79
2023/09/29 12:17:20;;;;;;;6.40;5.07;;;22.70;79.30;;;;;;5067956;28;20539;-79
2023/09/29 12:19:48;;;;;;;5.43;4.93;;;22.90;78.60;;;;;;5066277;28;20540;-79
2023/09/29 12:22:15;;;;;;;4.03;3.53;;;23.00;76.00;;;;;;5060056;28;20475;-79
2023/09/29 12:24:42;;;;;;;3.70;3.40;;;23.00;75.20;;;;;;5065697;28;20447;-81
2023/09/29 12:27:09;;;;;;;6.87;2.67;;;23.00;75.30;;;;;;5058914;28;20487;-80
2023/09/29 12:29:36;;;;;;;3.53;2.60;;;23.10;70.80;;;;;;5055819;28;20470;-79
2023/09/29 12:32:04;;;;;;;3.90;3.13;;;23.00;68.00;;;;;;5063073;28;20530;-81
2023/09/29 12:34:33;;;;;;;5.77;4.30;;;23.10;70.80;;;;;;5067968;28;20537;-79
2023/09/29 12:37:01;;;;;;;5.57;2.93;;;22.90;66.10;;;;;;5065050;28;20982;-80
2023/09/29 12:39:29;;;;;;;3.93;3.63;;;23.00;71.10;;;;;;5064857;28;20821;-79
2023/09/29 12:41:56;;;;;;;4.23;3.77;;;23.00;71.10;;;;;;5067563;28;20447;-79
2023/09/29 12:44:23;;;;;;;5.87;3.80;;;23.20;73.50;;;;;;5065628;28;20449;-81
2023/09/29 12:46:50;;;;;;;8.20;3.60;;;23.20;71.70;;;;;;5066644;28;20483;-79
2023/09/29 12:49:17;;;;;;;5.80;4.20;;;23.30;69.60;;;;;;5065415;28;20464;-78
2023/09/29 12:51:44;;;;;;;4.50;3.93;;;23.30;70.40;;;;;;5069319;28;20464;-78